sensor_id;sensor_type;location;lat;lon;timestamp;P1;durP1;ratioP1;P2;durP2;ratioP2
85188;SDS011;75559;49.132;8.922;2024-02-14T00:01:14;12.23;;;7.00;;
85188;SDS011;75559;49.132;8.922;2024-02-14T00:03:39;11.45;;;6.72;;
85188;SDS011;75559;49.132;8.922;2024-02-14T00:06:05;14.40;;;7.13;;
85188;SDS011;75559;49.132;8.922;2024-02-14T00:08:30;12.77;;;7.43;;
85188;SDS011;75559;49.132;8.922;2024-02-14T00:10:56;9.77;;;6.90;;
85188;SDS011;75559;49.132;8.922;2024-02-14T00:13:21;7.88;;;5.95;;
85188;SDS011;75559;49.132;8.922;2024-02-14T00:15:46;12.03;;;7.23;;
85188;SDS011;75559;49.132;8.922;2024-02-14T00:18:12;10.05;;;6.07;;
85188;SDS011;75559;49.132;8.922;2024-02-14T00:20:38;16.88;;;7.50;;
85188;SDS011;75559;49.132;8.922;2024-02-14T00:23:04;13.48;;;6.80;;
85188;SDS011;75559;49.132;8.922;2024-02-14T00:25:30;12.20;;;6.13;;
85188;SDS011;75559;49.132;8.922;2024-02-14T00:27:55;11.30;;;5.85;;
85188;SDS011;75559;49.132;8.922;2024-02-14T00:30:20;10.03;;;6.30;;
85188;SDS011;75559;49.132;8.922;2024-02-14T00:32:48;10.90;;;6.43;;
85188;SDS011;75559;49.132;8.922;2024-02-14T00:35:13;11.30;;;5.70;;
85188;SDS011;75559;49.132;8.922;2024-02-14T00:37:39;9.63;;;5.72;;
85188;SDS011;75559;49.132;8.922;2024-02-14T00:40:05;11.90;;;6.45;;
85188;SDS011;75559;49.132;8.922;2024-02-14T00:42:31;14.57;;;6.57;;
85188;SDS011;75559;49.132;8.922;2024-02-14T00:44:56;10.63;;;5.85;;
85188;SDS011;75559;49.132;8.922;2024-02-14T00:47:21;12.57;;;5.90;;
85188;SDS011;75559;49.132;8.922;2024-02-14T00:49:47;13.60;;;5.75;;
85188;SDS011;75559;49.132;8.922;2024-02-14T00:52:12;9.52;;;6.30;;
85188;SDS011;75559;49.132;8.922;2024-02-14T00:54:37;8.07;;;5.25;;
85188;SDS011;75559;49.132;8.922;2024-02-14T00:57:03;10.47;;;5.87;;
85188;SDS011;75559;49.132;8.922;2024-02-14T00:59:28;12.05;;;5.90;;
85188;SDS011;75559;49.132;8.922;2024-02-14T01:01:54;6.90;;;5.15;;
85188;SDS011;75559;49.132;8.922;2024-02-14T01:04:20;11.15;;;5.30;;
85188;SDS011;75559;49.132;8.922;2024-02-14T01:06:45;7.30;;;5.20;;
85188;SDS011;75559;49.132;8.922;2024-02-14T01:09:10;8.40;;;5.50;;
85188;SDS011;75559;49.132;8.922;2024-02-14T01:11:36;9.30;;;5.30;;
85188;SDS011;75559;49.132;8.922;2024-02-14T01:14:03;8.68;;;5.05;;
85188;SDS011;75559;49.132;8.922;2024-02-14T01:16:29;8.13;;;5.25;;
85188;SDS011;75559;49.132;8.922;2024-02-14T01:18:54;9.23;;;5.18;;
85188;SDS011;75559;49.132;8.922;2024-02-14T01:21:20;8.77;;;5.03;;
85188;SDS011;75559;49.132;8.922;2024-02-14T01:23:45;11.55;;;5.85;;
85188;SDS011;75559;49.132;8.922;2024-02-14T01:26:10;9.55;;;5.03;;
85188;SDS011;75559;49.132;8.922;2024-02-14T01:28:36;7.73;;;3.93;;
85188;SDS011;75559;49.132;8.922;2024-02-14T01:31:01;7.35;;;3.35;;
85188;SDS011;75559;49.132;8.922;2024-02-14T01:33:26;7.20;;;4.20;;
85188;SDS011;75559;49.132;8.922;2024-02-14T01:35:55;8.82;;;5.10;;
85188;SDS011;75559;49.132;8.922;2024-02-14T01:38:21;8.60;;;5.25;;
85188;SDS011;75559;49.132;8.922;2024-02-14T01:40:46;7.22;;;5.00;;
85188;SDS011;75559;49.132;8.922;2024-02-14T01:43:12;9.85;;;5.63;;
85188;SDS011;75559;49.132;8.922;2024-02-14T01:45:39;6.88;;;4.07;;
85188;SDS011;75559;49.132;8.922;2024-02-14T01:48:08;6.72;;;3.92;;
85188;SDS011;75559;49.132;8.922;2024-02-14T01:50:35;6.22;;;3.95;;
85188;SDS011;75559;49.132;8.922;2024-02-14T01:53:01;10.23;;;4.63;;
85188;SDS011;75559;49.132;8.922;2024-02-14T01:55:27;7.85;;;4.55;;
85188;SDS011;75559;49.132;8.922;2024-02-14T01:57:53;11.90;;;4.95;;
85188;SDS011;75559;49.132;8.922;2024-02-14T02:00:20;11.20;;;4.53;;
85188;SDS011;75559;49.132;8.922;2024-02-14T02:02:45;7.65;;;4.50;;
85188;SDS011;75559;49.132;8.922;2024-02-14T02:05:12;8.57;;;4.38;;
85188;SDS011;75559;49.132;8.922;2024-02-14T02:07:38;8.20;;;4.55;;
85188;SDS011;75559;49.132;8.922;2024-02-14T02:10:07;6.47;;;4.40;;
85188;SDS011;75559;49.132;8.922;2024-02-14T02:12:34;7.85;;;4.50;;
85188;SDS011;75559;49.132;8.922;2024-02-14T02:14:59;8.57;;;4.57;;
85188;SDS011;75559;49.132;8.922;2024-02-14T02:17:24;10.57;;;4.68;;
85188;SDS011;75559;49.132;8.922;2024-02-14T02:19:53;6.68;;;4.20;;
85188;SDS011;75559;49.132;8.922;2024-02-14T02:22:19;7.90;;;3.95;;
85188;SDS011;75559;49.132;8.922;2024-02-14T02:24:44;9.10;;;3.90;;
85188;SDS011;75559;49.132;8.922;2024-02-14T02:27:11;6.70;;;3.63;;
85188;SDS011;75559;49.132;8.922;2024-02-14T02:29:38;11.70;;;4.20;;
85188;SDS011;75559;49.132;8.922;2024-02-14T02:32:03;6.27;;;4.03;;
85188;SDS011;75559;49.132;8.922;2024-02-14T02:34:31;6.95;;;3.97;;
85188;SDS011;75559;49.132;8.922;2024-02-14T02:36:56;4.68;;;3.30;;
85188;SDS011;75559;49.132;8.922;2024-02-14T02:39:22;6.32;;;3.60;;
85188;SDS011;75559;49.132;8.922;2024-02-14T02:41:47;5.80;;;3.47;;
85188;SDS011;75559;49.132;8.922;2024-02-14T02:44:14;4.95;;;3.08;;
85188;SDS011;75559;49.132;8.922;2024-02-14T02:46:39;4.63;;;3.30;;
85188;SDS011;75559;49.132;8.922;2024-02-14T02:49:05;4.80;;;3.03;;
85188;SDS011;75559;49.132;8.922;2024-02-14T02:51:30;4.60;;;3.07;;
85188;SDS011;75559;49.132;8.922;2024-02-14T02:53:56;7.70;;;4.18;;
85188;SDS011;75559;49.132;8.922;2024-02-14T02:56:22;6.53;;;4.47;;
85188;SDS011;75559;49.132;8.922;2024-02-14T02:58:52;6.30;;;4.50;;
85188;SDS011;75559;49.132;8.922;2024-02-14T03:01:18;8.82;;;4.60;;
85188;SDS011;75559;49.132;8.922;2024-02-14T03:03:44;8.87;;;4.20;;
85188;SDS011;75559;49.132;8.922;2024-02-14T03:06:09;11.50;;;4.68;;
85188;SDS011;75559;49.132;8.922;2024-02-14T03:08:37;8.70;;;4.78;;
85188;SDS011;75559;49.132;8.922;2024-02-14T03:11:06;7.85;;;4.75;;
85188;SDS011;75559;49.132;8.922;2024-02-14T03:13:31;11.10;;;5.30;;
85188;SDS011;75559;49.132;8.922;2024-02-14T03:15:57;9.02;;;5.60;;
85188;SDS011;75559;49.132;8.922;2024-02-14T03:18:23;7.63;;;5.00;;
85188;SDS011;75559;49.132;8.922;2024-02-14T03:20:49;14.20;;;6.07;;
85188;SDS011;75559;49.132;8.922;2024-02-14T03:23:15;11.57;;;5.60;;
85188;SDS011;75559;49.132;8.922;2024-02-14T03:25:41;9.45;;;5.00;;
85188;SDS011;75559;49.132;8.922;2024-02-14T03:28:07;10.50;;;6.35;;
85188;SDS011;75559;49.132;8.922;2024-02-14T03:30:34;9.55;;;5.50;;
85188;SDS011;75559;49.132;8.922;2024-02-14T03:33:01;7.78;;;5.28;;
85188;SDS011;75559;49.132;8.922;2024-02-14T03:35:28;6.72;;;4.70;;
85188;SDS011;75559;49.132;8.922;2024-02-14T03:37:53;11.37;;;5.80;;
85188;SDS011;75559;49.132;8.922;2024-02-14T03:40:19;7.78;;;5.63;;
85188;SDS011;75559;49.132;8.922;2024-02-14T03:42:47;7.05;;;4.78;;
85188;SDS011;75559;49.132;8.922;2024-02-14T03:45:13;8.18;;;4.78;;
85188;SDS011;75559;49.132;8.922;2024-02-14T03:47:39;9.25;;;4.78;;
85188;SDS011;75559;49.132;8.922;2024-02-14T03:50:05;4.97;;;3.85;;
85188;SDS011;75559;49.132;8.922;2024-02-14T03:52:32;3.38;;;1.90;;
85188;SDS011;75559;49.132;8.922;2024-02-14T03:54:57;4.03;;;1.90;;
85188;SDS011;75559;49.132;8.922;2024-02-14T03:57:26;2.85;;;1.95;;
85188;SDS011;75559;49.132;8.922;2024-02-14T03:59:55;3.70;;;1.77;;
85188;SDS011;75559;49.132;8.922;2024-02-14T04:02:21;1.67;;;1.48;;
85188;SDS011;75559;49.132;8.922;2024-02-14T04:04:48;3.05;;;1.70;;
85188;SDS011;75559;49.132;8.922;2024-02-14T04:07:14;2.17;;;1.48;;
85188;SDS011;75559;49.132;8.922;2024-02-14T04:09:39;2.40;;;1.83;;
85188;SDS011;75559;49.132;8.922;2024-02-14T04:12:05;2.25;;;1.30;;
85188;SDS011;75559;49.132;8.922;2024-02-14T04:14:31;4.07;;;2.30;;
85188;SDS011;75559;49.132;8.922;2024-02-14T04:16:56;3.05;;;1.90;;
85188;SDS011;75559;49.132;8.922;2024-02-14T04:19:21;2.60;;;1.50;;
85188;SDS011;75559;49.132;8.922;2024-02-14T04:21:47;2.37;;;1.57;;
85188;SDS011;75559;49.132;8.922;2024-02-14T04:24:13;5.40;;;1.77;;
85188;SDS011;75559;49.132;8.922;2024-02-14T04:26:39;3.22;;;1.80;;
85188;SDS011;75559;49.132;8.922;2024-02-14T04:29:04;4.82;;;2.97;;
85188;SDS011;75559;49.132;8.922;2024-02-14T04:31:29;5.10;;;2.97;;
85188;SDS011;75559;49.132;8.922;2024-02-14T04:33:56;4.03;;;2.47;;
85188;SDS011;75559;49.132;8.922;2024-02-14T04:36:22;4.25;;;2.58;;
85188;SDS011;75559;49.132;8.922;2024-02-14T04:38:50;4.68;;;3.38;;
85188;SDS011;75559;49.132;8.922;2024-02-14T04:41:16;3.78;;;2.72;;
85188;SDS011;75559;49.132;8.922;2024-02-14T04:43:42;5.40;;;2.85;;
85188;SDS011;75559;49.132;8.922;2024-02-14T04:46:07;5.35;;;2.70;;
85188;SDS011;75559;49.132;8.922;2024-02-14T04:48:36;4.85;;;2.75;;
85188;SDS011;75559;49.132;8.922;2024-02-14T04:51:03;4.03;;;2.70;;
85188;SDS011;75559;49.132;8.922;2024-02-14T04:53:32;3.65;;;2.67;;
85188;SDS011;75559;49.132;8.922;2024-02-14T04:55:57;5.25;;;2.97;;
85188;SDS011;75559;49.132;8.922;2024-02-14T04:58:23;4.80;;;3.05;;
85188;SDS011;75559;49.132;8.922;2024-02-14T05:00:48;5.28;;;3.30;;
85188;SDS011;75559;49.132;8.922;2024-02-14T05:03:14;5.20;;;3.28;;
85188;SDS011;75559;49.132;8.922;2024-02-14T05:05:40;6.53;;;3.00;;
85188;SDS011;75559;49.132;8.922;2024-02-14T05:08:06;5.80;;;3.35;;
85188;SDS011;75559;49.132;8.922;2024-02-14T05:10:31;5.45;;;2.92;;
85188;SDS011;75559;49.132;8.922;2024-02-14T05:12:57;6.50;;;2.90;;
85188;SDS011;75559;49.132;8.922;2024-02-14T05:15:23;6.18;;;3.35;;
85188;SDS011;75559;49.132;8.922;2024-02-14T05:17:48;4.43;;;3.65;;
85188;SDS011;75559;49.132;8.922;2024-02-14T05:20:15;5.35;;;4.30;;
85188;SDS011;75559;49.132;8.922;2024-02-14T05:22:41;5.78;;;3.17;;
85188;SDS011;75559;49.132;8.922;2024-02-14T05:25:06;6.45;;;3.13;;
85188;SDS011;75559;49.132;8.922;2024-02-14T05:27:35;8.05;;;3.33;;
85188;SDS011;75559;49.132;8.922;2024-02-14T05:30:02;6.68;;;3.17;;
85188;SDS011;75559;49.132;8.922;2024-02-14T05:32:31;8.23;;;3.17;;
85188;SDS011;75559;49.132;8.922;2024-02-14T05:34:58;8.95;;;3.25;;
85188;SDS011;75559;49.132;8.922;2024-02-14T05:37:23;6.50;;;3.00;;
85188;SDS011;75559;49.132;8.922;2024-02-14T05:39:49;6.47;;;3.33;;
85188;SDS011;75559;49.132;8.922;2024-02-14T05:42:14;5.97;;;3.38;;
85188;SDS011;75559;49.132;8.922;2024-02-14T05:44:41;5.53;;;3.10;;
85188;SDS011;75559;49.132;8.922;2024-02-14T05:47:08;4.80;;;3.03;;
85188;SDS011;75559;49.132;8.922;2024-02-14T05:49:33;5.18;;;3.13;;
85188;SDS011;75559;49.132;8.922;2024-02-14T05:51:59;5.88;;;3.00;;
85188;SDS011;75559;49.132;8.922;2024-02-14T05:54:24;5.45;;;3.13;;
85188;SDS011;75559;49.132;8.922;2024-02-14T05:56:50;5.82;;;3.05;;
85188;SDS011;75559;49.132;8.922;2024-02-14T05:59:16;5.13;;;3.45;;
85188;SDS011;75559;49.132;8.922;2024-02-14T06:01:41;8.60;;;4.53;;
85188;SDS011;75559;49.132;8.922;2024-02-14T06:04:06;5.27;;;3.03;;
85188;SDS011;75559;49.132;8.922;2024-02-14T06:06:32;5.60;;;3.15;;
85188;SDS011;75559;49.132;8.922;2024-02-14T06:08:57;8.67;;;3.47;;
85188;SDS011;75559;49.132;8.922;2024-02-14T06:11:23;6.20;;;3.30;;
85188;SDS011;75559;49.132;8.922;2024-02-14T06:13:48;7.22;;;3.55;;
85188;SDS011;75559;49.132;8.922;2024-02-14T06:16:14;5.97;;;3.30;;
85188;SDS011;75559;49.132;8.922;2024-02-14T06:18:40;5.03;;;3.42;;
85188;SDS011;75559;49.132;8.922;2024-02-14T06:21:05;7.25;;;3.72;;
85188;SDS011;75559;49.132;8.922;2024-02-14T06:23:31;4.82;;;3.55;;
85188;SDS011;75559;49.132;8.922;2024-02-14T06:25:57;4.68;;;2.83;;
85188;SDS011;75559;49.132;8.922;2024-02-14T06:28:23;8.18;;;3.38;;
85188;SDS011;75559;49.132;8.922;2024-02-14T06:30:48;8.02;;;3.00;;
85188;SDS011;75559;49.132;8.922;2024-02-14T06:33:14;4.43;;;2.87;;
85188;SDS011;75559;49.132;8.922;2024-02-14T06:35:39;4.77;;;2.70;;
85188;SDS011;75559;49.132;8.922;2024-02-14T06:38:05;5.53;;;3.03;;
85188;SDS011;75559;49.132;8.922;2024-02-14T06:40:31;4.90;;;2.70;;
85188;SDS011;75559;49.132;8.922;2024-02-14T06:42:57;4.88;;;2.80;;
85188;SDS011;75559;49.132;8.922;2024-02-14T06:45:25;8.30;;;3.28;;
85188;SDS011;75559;49.132;8.922;2024-02-14T06:47:50;5.88;;;2.78;;
85188;SDS011;75559;49.132;8.922;2024-02-14T06:50:16;5.33;;;3.60;;
85188;SDS011;75559;49.132;8.922;2024-02-14T06:52:41;5.55;;;3.08;;
85188;SDS011;75559;49.132;8.922;2024-02-14T06:55:07;4.90;;;3.20;;
85188;SDS011;75559;49.132;8.922;2024-02-14T06:57:32;5.88;;;3.30;;
85188;SDS011;75559;49.132;8.922;2024-02-14T06:59:58;8.27;;;3.20;;
85188;SDS011;75559;49.132;8.922;2024-02-14T07:02:23;5.60;;;3.13;;
85188;SDS011;75559;49.132;8.922;2024-02-14T07:04:52;7.38;;;3.63;;
85188;SDS011;75559;49.132;8.922;2024-02-14T07:07:18;9.30;;;4.28;;
85188;SDS011;75559;49.132;8.922;2024-02-14T07:09:43;5.50;;;4.15;;
85188;SDS011;75559;49.132;8.922;2024-02-14T07:12:09;5.00;;;3.30;;
85188;SDS011;75559;49.132;8.922;2024-02-14T07:14:34;3.60;;;2.47;;
85188;SDS011;75559;49.132;8.922;2024-02-14T07:17:00;6.05;;;2.58;;
85188;SDS011;75559;49.132;8.922;2024-02-14T07:19:26;5.03;;;2.67;;
85188;SDS011;75559;49.132;8.922;2024-02-14T07:21:52;5.43;;;2.47;;
85188;SDS011;75559;49.132;8.922;2024-02-14T07:24:18;5.77;;;2.50;;
85188;SDS011;75559;49.132;8.922;2024-02-14T07:26:43;5.70;;;3.47;;
85188;SDS011;75559;49.132;8.922;2024-02-14T07:29:09;4.85;;;2.63;;
85188;SDS011;75559;49.132;8.922;2024-02-14T07:31:35;10.65;;;3.45;;
85188;SDS011;75559;49.132;8.922;2024-02-14T07:34:00;4.03;;;2.80;;
85188;SDS011;75559;49.132;8.922;2024-02-14T07:36:28;16.35;;;3.47;;
85188;SDS011;75559;49.132;8.922;2024-02-14T07:38:53;6.45;;;3.45;;
85188;SDS011;75559;49.132;8.922;2024-02-14T07:41:19;5.67;;;3.40;;
85188;SDS011;75559;49.132;8.922;2024-02-14T07:43:44;6.05;;;3.22;;
85188;SDS011;75559;49.132;8.922;2024-02-14T07:46:09;9.60;;;3.40;;
85188;SDS011;75559;49.132;8.922;2024-02-14T07:48:36;7.05;;;4.32;;
85188;SDS011;75559;49.132;8.922;2024-02-14T07:51:02;8.67;;;4.03;;
85188;SDS011;75559;49.132;8.922;2024-02-14T07:53:27;6.90;;;3.67;;
85188;SDS011;75559;49.132;8.922;2024-02-14T07:55:52;6.70;;;3.87;;
85188;SDS011;75559;49.132;8.922;2024-02-14T07:58:19;6.40;;;4.00;;
85188;SDS011;75559;49.132;8.922;2024-02-14T08:00:45;8.77;;;4.53;;
85188;SDS011;75559;49.132;8.922;2024-02-14T08:03:10;11.60;;;5.33;;
85188;SDS011;75559;49.132;8.922;2024-02-14T08:05:35;7.83;;;5.53;;
85188;SDS011;75559;49.132;8.922;2024-02-14T08:08:00;7.20;;;4.83;;
85188;SDS011;75559;49.132;8.922;2024-02-14T08:10:26;7.13;;;3.60;;
85188;SDS011;75559;49.132;8.922;2024-02-14T08:12:51;9.18;;;4.10;;
85188;SDS011;75559;49.132;8.922;2024-02-14T08:15:17;5.90;;;4.03;;
85188;SDS011;75559;49.132;8.922;2024-02-14T08:17:42;5.47;;;2.97;;
85188;SDS011;75559;49.132;8.922;2024-02-14T08:20:08;6.43;;;3.67;;
85188;SDS011;75559;49.132;8.922;2024-02-14T08:22:34;10.38;;;3.72;;
85188;SDS011;75559;49.132;8.922;2024-02-14T08:24:59;5.50;;;2.70;;
85188;SDS011;75559;49.132;8.922;2024-02-14T08:27:25;2.78;;;1.85;;
85188;SDS011;75559;49.132;8.922;2024-02-14T08:29:51;3.03;;;1.98;;
85188;SDS011;75559;49.132;8.922;2024-02-14T08:32:16;3.20;;;1.80;;
85188;SDS011;75559;49.132;8.922;2024-02-14T08:34:42;3.17;;;1.95;;
85188;SDS011;75559;49.132;8.922;2024-02-14T08:37:08;2.97;;;1.92;;
85188;SDS011;75559;49.132;8.922;2024-02-14T08:39:34;3.30;;;2.20;;
85188;SDS011;75559;49.132;8.922;2024-02-14T08:41:59;3.03;;;2.00;;
85188;SDS011;75559;49.132;8.922;2024-02-14T08:44:28;3.50;;;2.20;;
85188;SDS011;75559;49.132;8.922;2024-02-14T08:46:53;3.25;;;2.10;;
85188;SDS011;75559;49.132;8.922;2024-02-14T08:49:19;4.10;;;2.05;;
85188;SDS011;75559;49.132;8.922;2024-02-14T08:51:44;3.08;;;1.80;;
85188;SDS011;75559;49.132;8.922;2024-02-14T08:54:11;4.22;;;1.70;;
85188;SDS011;75559;49.132;8.922;2024-02-14T08:56:37;3.83;;;1.73;;
85188;SDS011;75559;49.132;8.922;2024-02-14T08:59:02;3.25;;;1.95;;
85188;SDS011;75559;49.132;8.922;2024-02-14T09:01:29;3.78;;;2.58;;
85188;SDS011;75559;49.132;8.922;2024-02-14T09:03:54;4.70;;;2.00;;
85188;SDS011;75559;49.132;8.922;2024-02-14T09:06:20;3.20;;;1.80;;
85188;SDS011;75559;49.132;8.922;2024-02-14T09:08:46;3.25;;;1.65;;
85188;SDS011;75559;49.132;8.922;2024-02-14T09:11:11;2.83;;;1.70;;
85188;SDS011;75559;49.132;8.922;2024-02-14T09:13:37;3.78;;;1.70;;
85188;SDS011;75559;49.132;8.922;2024-02-14T09:16:03;2.53;;;1.73;;
85188;SDS011;75559;49.132;8.922;2024-02-14T09:18:28;3.08;;;1.63;;
85188;SDS011;75559;49.132;8.922;2024-02-14T09:20:56;2.50;;;1.60;;
85188;SDS011;75559;49.132;8.922;2024-02-14T09:23:22;1.67;;;1.33;;
85188;SDS011;75559;49.132;8.922;2024-02-14T09:25:48;2.90;;;1.42;;
85188;SDS011;75559;49.132;8.922;2024-02-14T09:28:17;2.83;;;1.52;;
85188;SDS011;75559;49.132;8.922;2024-02-14T09:30:42;3.83;;;1.73;;
85188;SDS011;75559;49.132;8.922;2024-02-14T09:33:08;2.90;;;1.90;;
85188;SDS011;75559;49.132;8.922;2024-02-14T09:35:33;2.60;;;1.55;;
85188;SDS011;75559;49.132;8.922;2024-02-14T09:38:00;2.80;;;1.45;;
85188;SDS011;75559;49.132;8.922;2024-02-14T09:40:26;2.45;;;1.80;;
85188;SDS011;75559;49.132;8.922;2024-02-14T09:42:53;3.50;;;1.65;;
85188;SDS011;75559;49.132;8.922;2024-02-14T09:45:26;1.55;;;1.40;;
85188;SDS011;75559;49.132;8.922;2024-02-14T09:47:52;2.33;;;1.50;;
85188;SDS011;75559;49.132;8.922;2024-02-14T09:50:19;3.60;;;1.83;;
85188;SDS011;75559;49.132;8.922;2024-02-14T09:52:49;2.28;;;1.52;;
85188;SDS011;75559;49.132;8.922;2024-02-14T09:55:15;3.50;;;1.98;;
85188;SDS011;75559;49.132;8.922;2024-02-14T09:57:41;1.42;;;1.33;;
85188;SDS011;75559;49.132;8.922;2024-02-14T10:00:11;2.50;;;1.17;;
85188;SDS011;75559;49.132;8.922;2024-02-14T10:02:39;3.97;;;1.85;;
85188;SDS011;75559;49.132;8.922;2024-02-14T10:05:05;3.92;;;2.00;;
85188;SDS011;75559;49.132;8.922;2024-02-14T10:07:38;1.40;;;1.30;;
85188;SDS011;75559;49.132;8.922;2024-02-14T10:10:07;5.88;;;1.70;;
85188;SDS011;75559;49.132;8.922;2024-02-14T10:12:33;3.05;;;1.63;;
85188;SDS011;75559;49.132;8.922;2024-02-14T10:14:58;3.65;;;1.70;;
85188;SDS011;75559;49.132;8.922;2024-02-14T10:17:24;1.93;;;1.60;;
85188;SDS011;75559;49.132;8.922;2024-02-14T10:19:59;2.47;;;1.57;;
85188;SDS011;75559;49.132;8.922;2024-02-14T10:22:36;1.75;;;1.30;;
85188;SDS011;75559;49.132;8.922;2024-02-14T10:25:02;1.95;;;1.52;;
85188;SDS011;75559;49.132;8.922;2024-02-14T10:27:32;2.67;;;1.55;;
85188;SDS011;75559;49.132;8.922;2024-02-14T10:29:57;1.20;;;1.10;;
85188;SDS011;75559;49.132;8.922;2024-02-14T10:32:24;3.58;;;1.80;;
85188;SDS011;75559;49.132;8.922;2024-02-14T10:34:49;7.28;;;1.80;;
85188;SDS011;75559;49.132;8.922;2024-02-14T10:37:15;2.75;;;1.48;;
85188;SDS011;75559;49.132;8.922;2024-02-14T10:39:43;4.97;;;1.70;;
85188;SDS011;75559;49.132;8.922;2024-02-14T10:42:11;3.25;;;1.70;;
85188;SDS011;75559;49.132;8.922;2024-02-14T10:44:37;2.25;;;1.75;;
85188;SDS011;75559;49.132;8.922;2024-02-14T10:47:03;4.30;;;1.98;;
85188;SDS011;75559;49.132;8.922;2024-02-14T10:49:32;4.40;;;1.95;;
85188;SDS011;75559;49.132;8.922;2024-02-14T10:51:59;2.60;;;1.60;;
85188;SDS011;75559;49.132;8.922;2024-02-14T10:54:29;3.88;;;1.77;;
85188;SDS011;75559;49.132;8.922;2024-02-14T10:56:55;4.72;;;1.67;;
85188;SDS011;75559;49.132;8.922;2024-02-14T10:59:23;2.38;;;1.50;;
85188;SDS011;75559;49.132;8.922;2024-02-14T11:01:50;4.68;;;1.88;;
85188;SDS011;75559;49.132;8.922;2024-02-14T11:04:16;6.20;;;2.08;;
85188;SDS011;75559;49.132;8.922;2024-02-14T11:06:44;3.28;;;1.50;;
85188;SDS011;75559;49.132;8.922;2024-02-14T11:11:41;2.03;;;1.40;;
85188;SDS011;75559;49.132;8.922;2024-02-14T11:14:08;3.50;;;1.67;;
85188;SDS011;75559;49.132;8.922;2024-02-14T11:16:34;1.77;;;1.30;;
85188;SDS011;75559;49.132;8.922;2024-02-14T11:19:11;2.15;;;1.40;;
85188;SDS011;75559;49.132;8.922;2024-02-14T11:21:41;3.88;;;1.58;;
85188;SDS011;75559;49.132;8.922;2024-02-14T11:24:11;2.20;;;1.23;;
85188;SDS011;75559;49.132;8.922;2024-02-14T11:26:46;1.75;;;1.40;;
85188;SDS011;75559;49.132;8.922;2024-02-14T11:29:14;5.30;;;1.73;;
85188;SDS011;75559;49.132;8.922;2024-02-14T11:31:41;2.97;;;1.30;;
85188;SDS011;75559;49.132;8.922;2024-02-14T11:34:08;3.38;;;1.50;;
85188;SDS011;75559;49.132;8.922;2024-02-14T11:36:36;2.47;;;1.48;;
85188;SDS011;75559;49.132;8.922;2024-02-14T11:39:02;2.28;;;1.30;;
85188;SDS011;75559;49.132;8.922;2024-02-14T11:41:29;2.63;;;1.55;;
85188;SDS011;75559;49.132;8.922;2024-02-14T11:43:54;5.80;;;1.93;;
85188;SDS011;75559;49.132;8.922;2024-02-14T11:46:19;3.57;;;1.20;;
85188;SDS011;75559;49.132;8.922;2024-02-14T11:48:45;3.83;;;1.35;;
85188;SDS011;75559;49.132;8.922;2024-02-14T11:51:11;1.40;;;1.20;;
85188;SDS011;75559;49.132;8.922;2024-02-14T11:53:36;2.30;;;1.53;;
85188;SDS011;75559;49.132;8.922;2024-02-14T11:56:04;2.17;;;1.38;;
85188;SDS011;75559;49.132;8.922;2024-02-14T11:58:30;2.35;;;1.83;;
85188;SDS011;75559;49.132;8.922;2024-02-14T12:00:56;2.67;;;1.40;;
85188;SDS011;75559;49.132;8.922;2024-02-14T12:03:22;3.70;;;2.03;;
85188;SDS011;75559;49.132;8.922;2024-02-14T12:05:52;1.55;;;1.20;;
85188;SDS011;75559;49.132;8.922;2024-02-14T12:08:18;2.53;;;1.30;;
85188;SDS011;75559;49.132;8.922;2024-02-14T12:10:44;2.95;;;1.45;;
85188;SDS011;75559;49.132;8.922;2024-02-14T12:13:15;1.35;;;1.25;;
85188;SDS011;75559;49.132;8.922;2024-02-14T12:15:46;2.03;;;1.25;;
85188;SDS011;75559;49.132;8.922;2024-02-14T12:18:16;1.77;;;1.13;;
85188;SDS011;75559;49.132;8.922;2024-02-14T12:20:45;1.73;;;1.35;;
85188;SDS011;75559;49.132;8.922;2024-02-14T12:23:14;1.92;;;1.30;;
85188;SDS011;75559;49.132;8.922;2024-02-14T12:28:15;1.80;;;1.10;;
85188;SDS011;75559;49.132;8.922;2024-02-14T12:33:22;3.42;;;1.25;;
85188;SDS011;75559;49.132;8.922;2024-02-14T12:35:49;1.67;;;1.20;;
85188;SDS011;75559;49.132;8.922;2024-02-14T12:38:16;2.08;;;1.30;;
85188;SDS011;75559;49.132;8.922;2024-02-14T12:40:42;2.30;;;1.42;;
85188;SDS011;75559;49.132;8.922;2024-02-14T12:43:09;3.00;;;1.17;;
85188;SDS011;75559;49.132;8.922;2024-02-14T12:45:38;1.75;;;1.10;;
85188;SDS011;75559;49.132;8.922;2024-02-14T12:48:05;2.20;;;1.35;;
85188;SDS011;75559;49.132;8.922;2024-02-14T12:50:31;3.00;;;1.20;;
85188;SDS011;75559;49.132;8.922;2024-02-14T12:52:57;2.75;;;1.38;;
85188;SDS011;75559;49.132;8.922;2024-02-14T12:55:23;3.30;;;1.98;;
85188;SDS011;75559;49.132;8.922;2024-02-14T12:57:50;2.17;;;1.50;;
85188;SDS011;75559;49.132;8.922;2024-02-14T13:00:19;1.80;;;1.27;;
85188;SDS011;75559;49.132;8.922;2024-02-14T13:02:44;1.95;;;1.38;;
85188;SDS011;75559;49.132;8.922;2024-02-14T13:05:09;2.45;;;1.17;;
85188;SDS011;75559;49.132;8.922;2024-02-14T13:07:35;2.35;;;1.60;;
85188;SDS011;75559;49.132;8.922;2024-02-14T13:10:00;2.45;;;1.30;;
85188;SDS011;75559;49.132;8.922;2024-02-14T13:12:26;1.77;;;1.23;;
85188;SDS011;75559;49.132;8.922;2024-02-14T13:14:51;2.17;;;1.30;;
85188;SDS011;75559;49.132;8.922;2024-02-14T13:17:17;1.58;;;1.40;;
85188;SDS011;75559;49.132;8.922;2024-02-14T13:19:42;1.80;;;1.25;;
85188;SDS011;75559;49.132;8.922;2024-02-14T13:22:08;2.95;;;1.08;;
85188;SDS011;75559;49.132;8.922;2024-02-14T13:24:34;2.72;;;1.38;;
85188;SDS011;75559;49.132;8.922;2024-02-14T13:27:00;2.17;;;1.23;;
85188;SDS011;75559;49.132;8.922;2024-02-14T13:29:25;2.67;;;1.23;;
85188;SDS011;75559;49.132;8.922;2024-02-14T13:31:51;1.70;;;1.05;;
85188;SDS011;75559;49.132;8.922;2024-02-14T13:34:16;2.60;;;1.20;;
85188;SDS011;75559;49.132;8.922;2024-02-14T13:36:44;2.75;;;1.30;;
85188;SDS011;75559;49.132;8.922;2024-02-14T13:39:10;2.90;;;1.20;;
85188;SDS011;75559;49.132;8.922;2024-02-14T13:41:37;2.55;;;1.20;;
85188;SDS011;75559;49.132;8.922;2024-02-14T13:44:03;2.10;;;1.30;;
85188;SDS011;75559;49.132;8.922;2024-02-14T13:46:29;1.35;;;1.15;;
85188;SDS011;75559;49.132;8.922;2024-02-14T13:48:55;1.88;;;1.13;;
85188;SDS011;75559;49.132;8.922;2024-02-14T13:51:20;3.17;;;1.40;;
85188;SDS011;75559;49.132;8.922;2024-02-14T13:53:46;3.00;;;1.55;;
85188;SDS011;75559;49.132;8.922;2024-02-14T13:56:13;2.53;;;1.60;;
85188;SDS011;75559;49.132;8.922;2024-02-14T13:58:40;2.53;;;1.40;;
85188;SDS011;75559;49.132;8.922;2024-02-14T14:01:06;2.65;;;1.10;;
85188;SDS011;75559;49.132;8.922;2024-02-14T14:03:32;1.25;;;1.15;;
85188;SDS011;75559;49.132;8.922;2024-02-14T14:05:59;2.28;;;1.58;;
85188;SDS011;75559;49.132;8.922;2024-02-14T14:08:25;1.92;;;1.10;;
85188;SDS011;75559;49.132;8.922;2024-02-14T14:10:50;1.52;;;1.05;;
85188;SDS011;75559;49.132;8.922;2024-02-14T14:13:16;1.30;;;1.08;;
85188;SDS011;75559;49.132;8.922;2024-02-14T14:15:41;2.10;;;1.30;;
85188;SDS011;75559;49.132;8.922;2024-02-14T14:18:06;1.23;;;1.02;;
85188;SDS011;75559;49.132;8.922;2024-02-14T14:20:33;1.92;;;1.35;;
85188;SDS011;75559;49.132;8.922;2024-02-14T14:22:59;1.60;;;1.20;;
85188;SDS011;75559;49.132;8.922;2024-02-14T14:25:25;1.35;;;1.20;;
85188;SDS011;75559;49.132;8.922;2024-02-14T14:27:53;2.30;;;1.20;;
85188;SDS011;75559;49.132;8.922;2024-02-14T14:30:18;1.52;;;1.42;;
85188;SDS011;75559;49.132;8.922;2024-02-14T14:32:44;1.80;;;1.30;;
85188;SDS011;75559;49.132;8.922;2024-02-14T14:35:09;2.28;;;1.20;;
85188;SDS011;75559;49.132;8.922;2024-02-14T14:37:35;2.20;;;1.35;;
85188;SDS011;75559;49.132;8.922;2024-02-14T14:40:01;2.20;;;1.40;;
85188;SDS011;75559;49.132;8.922;2024-02-14T14:42:26;2.10;;;1.30;;
85188;SDS011;75559;49.132;8.922;2024-02-14T14:44:52;2.03;;;1.30;;
85188;SDS011;75559;49.132;8.922;2024-02-14T14:47:17;2.57;;;1.10;;